createdAt,value
2022-12-23T00:02:23.082Z,22.33
2022-12-23T00:05:27.735Z,22.20
2022-12-23T00:08:36.028Z,22.43
2022-12-23T00:11:59.788Z,21.77
2022-12-23T00:15:06.921Z,22.97
2022-12-23T00:18:10.598Z,23.63
2022-12-23T00:21:17.677Z,24.00
2022-12-23T00:24:21.354Z,25.10
2022-12-23T00:27:24.911Z,24.80
2022-12-23T00:30:30.035Z,24.80
2022-12-23T00:33:36.583Z,26.50
2022-12-23T00:36:41.020Z,25.27
2022-12-23T00:40:06.563Z,26.70
2022-12-23T00:43:10.710Z,27.23
2022-12-23T00:46:15.900Z,26.63
2022-12-23T00:49:50.317Z,26.50
2022-12-23T00:52:53.997Z,25.70
2022-12-23T00:55:57.634Z,25.47
2022-12-23T00:59:02.050Z,25.40
2022-12-23T01:02:24.506Z,25.83
2022-12-23T01:05:40.567Z,26.73
2022-12-23T01:08:44.276Z,27.37
2022-12-23T01:11:47.998Z,27.00
2022-12-23T01:14:51.651Z,27.40
2022-12-23T01:17:57.017Z,25.50
2022-12-23T01:21:04.445Z,26.37
2022-12-23T01:24:08.853Z,29.10
2022-12-23T01:27:12.509Z,26.37
2022-12-23T01:30:16.559Z,25.67
2022-12-23T01:33:21.845Z,26.20
2022-12-23T01:36:25.932Z,25.03
2022-12-23T01:39:29.588Z,24.33
2022-12-23T01:42:45.331Z,23.43
2022-12-23T01:45:49.605Z,22.70
2022-12-23T01:48:55.348Z,24.53
2022-12-23T01:51:59.034Z,25.70
2022-12-23T01:55:02.932Z,24.60
2022-12-23T01:58:13.312Z,25.03
2022-12-23T02:01:34.645Z,25.30
2022-12-23T02:04:39.861Z,27.53
2022-12-23T02:08:01.642Z,27.90
2022-12-23T02:11:32.269Z,26.97
2022-12-23T02:15:34.019Z,26.97
2022-12-23T02:19:07.825Z,25.63
2022-12-23T02:22:43.136Z,26.47
2022-12-23T02:26:22.942Z,27.83
2022-12-23T02:30:25.203Z,25.07
2022-12-23T02:33:52.705Z,26.70
2022-12-23T02:37:06.495Z,27.27
2022-12-23T02:40:20.531Z,25.83
2022-12-23T02:43:35.454Z,26.50
2022-12-23T02:46:47.457Z,26.47
2022-12-23T02:49:57.909Z,26.53
2022-12-23T02:53:10.646Z,25.97
2022-12-23T02:56:18.317Z,26.97
2022-12-23T02:59:26.871Z,27.27
2022-12-23T03:02:32.388Z,26.93
2022-12-23T03:05:43.958Z,26.27
2022-12-23T03:08:48.522Z,27.73
2022-12-23T03:12:05.217Z,27.30
2022-12-23T03:15:32.112Z,26.87
2022-12-23T03:18:51.639Z,25.93
2022-12-23T03:22:11.147Z,25.57
2022-12-23T03:25:25.292Z,25.80
2022-12-23T03:28:40.784Z,26.57
2022-12-23T03:31:46.691Z,24.93
2022-12-23T03:34:56.883Z,26.57
2022-12-23T03:38:05.111Z,26.37
2022-12-23T03:41:15.917Z,26.33
2022-12-23T03:44:27.958Z,25.73
2022-12-23T03:47:39.521Z,25.20
2022-12-23T03:50:45.316Z,25.03
2022-12-23T03:53:57.317Z,24.87
2022-12-23T03:57:06.939Z,26.93
2022-12-23T04:00:13.199Z,25.57
2022-12-23T04:03:28.196Z,25.20
2022-12-23T04:06:43.610Z,25.60
2022-12-23T04:09:50.668Z,24.47
2022-12-23T04:12:54.993Z,23.77
2022-12-23T04:16:00.449Z,24.70
2022-12-23T04:19:04.191Z,24.50
2022-12-23T04:22:07.857Z,24.20
2022-12-23T04:25:14.541Z,25.90
2022-12-23T04:28:20.180Z,23.50
2022-12-23T04:31:23.849Z,24.90
2022-12-23T04:34:27.583Z,25.57
2022-12-23T04:37:31.393Z,24.67
2022-12-23T04:40:37.244Z,23.20
2022-12-23T04:43:40.804Z,22.80
2022-12-23T04:46:44.610Z,23.57
2022-12-23T04:49:48.263Z,23.93
2022-12-23T04:52:51.844Z,24.07
2022-12-23T04:55:57.003Z,25.00
2022-12-23T04:59:02.298Z,25.17
2022-12-23T05:02:06.272Z,26.30
2022-12-23T05:05:10.695Z,26.60
2022-12-23T05:08:14.286Z,26.20
2022-12-23T05:11:19.534Z,27.57
2022-12-23T05:14:23.270Z,27.23
2022-12-23T05:17:26.936Z,28.90
2022-12-23T05:20:30.522Z,29.50
2022-12-23T05:23:34.376Z,29.27
2022-12-23T05:26:39.754Z,31.20
2022-12-23T05:29:43.472Z,33.83
2022-12-23T05:32:47.137Z,32.70
2022-12-23T05:35:50.743Z,38.20
2022-12-23T05:38:54.365Z,36.77
2022-12-23T05:41:59.375Z,40.83
2022-12-23T05:45:02.976Z,41.77
2022-12-23T05:48:07.126Z,41.60
2022-12-23T05:51:10.758Z,42.90
2022-12-23T05:54:14.515Z,70.60
2022-12-23T05:57:19.648Z,62.03
2022-12-23T06:00:24.516Z,50.10
2022-12-23T06:03:28.507Z,28.30
2022-12-23T06:06:32.242Z,40.83
2022-12-23T06:09:36.110Z,52.50
2022-12-23T06:12:41.198Z,31.87
2022-12-23T06:15:44.933Z,43.67
2022-12-23T06:18:48.585Z,31.73
2022-12-23T06:21:52.311Z,35.67
2022-12-23T06:24:55.905Z,28.87
2022-12-23T06:28:01.039Z,26.37
2022-12-23T06:31:04.839Z,29.83
2022-12-23T06:34:08.580Z,33.00
2022-12-23T06:37:12.725Z,30.17
2022-12-23T06:40:16.612Z,30.50
2022-12-23T06:43:21.875Z,34.57
2022-12-23T06:46:25.712Z,31.63
2022-12-23T06:49:29.469Z,36.30
2022-12-23T06:52:33.245Z,47.37
2022-12-23T06:55:37.077Z,43.53
2022-12-23T06:58:42.097Z,41.40
2022-12-23T07:01:45.923Z,39.90
2022-12-23T07:04:49.648Z,47.43
2022-12-23T07:07:53.309Z,54.60
2022-12-23T07:11:00.148Z,49.23
2022-12-23T07:14:05.213Z,54.60
2022-12-23T07:17:09.132Z,45.90
2022-12-23T07:20:14.807Z,34.03
2022-12-23T07:23:18.612Z,43.17
2022-12-23T07:26:22.249Z,41.80
2022-12-23T07:29:27.399Z,42.50
2022-12-23T07:32:31.012Z,39.83
2022-12-23T07:35:34.709Z,40.53
2022-12-23T07:38:38.636Z,46.23
2022-12-23T07:41:42.530Z,44.40
2022-12-23T07:44:47.568Z,35.30
2022-12-23T07:47:54.802Z,45.07
2022-12-23T07:51:02.872Z,46.37
2022-12-23T07:54:06.982Z,47.23
2022-12-23T07:57:10.624Z,46.57
2022-12-23T08:00:17.645Z,42.07
2022-12-23T08:03:21.286Z,34.27
2022-12-23T08:06:25.493Z,47.70
2022-12-23T08:09:29.301Z,69.30
2022-12-23T08:12:33.504Z,42.07
2022-12-23T08:15:39.675Z,39.03
2022-12-23T08:18:43.729Z,42.90
2022-12-23T08:21:47.427Z,42.73
2022-12-23T08:24:54.036Z,36.10
2022-12-23T08:27:57.718Z,51.33
2022-12-23T08:31:12.166Z,41.40
2022-12-23T08:34:15.973Z,36.70
2022-12-23T08:37:19.655Z,32.87
2022-12-23T08:40:23.734Z,30.37
2022-12-23T08:43:31.965Z,29.10
2022-12-23T08:46:41.829Z,28.20
2022-12-23T08:49:45.625Z,29.53
2022-12-23T08:52:49.442Z,29.23
2022-12-23T08:55:53.034Z,29.97
2022-12-23T08:58:57.632Z,29.60
2022-12-23T09:02:03.576Z,27.93
2022-12-23T09:05:07.602Z,27.30
2022-12-23T09:08:11.288Z,30.77
2022-12-23T09:11:17.837Z,29.67
2022-12-23T09:14:21.743Z,30.47
2022-12-23T09:17:26.706Z,30.73
2022-12-23T09:20:30.438Z,29.60
2022-12-23T09:23:35.385Z,29.07
2022-12-23T09:26:39.051Z,28.23
2022-12-23T09:29:44.764Z,28.87
2022-12-23T09:32:49.897Z,28.00
2022-12-23T09:35:53.518Z,27.53
2022-12-23T09:38:59.703Z,27.17
2022-12-23T09:42:14.169Z,27.47
2022-12-23T09:45:54.353Z,27.63
2022-12-23T09:49:06.974Z,26.30
2022-12-23T09:52:17.600Z,26.83
2022-12-23T09:55:24.914Z,27.67
2022-12-23T09:58:34.493Z,27.40
2022-12-23T10:01:48.155Z,26.87
2022-12-23T10:05:06.381Z,27.30
2022-12-23T10:08:19.691Z,26.40
2022-12-23T10:11:27.856Z,26.70
2022-12-23T10:14:34.822Z,25.73
2022-12-23T10:17:43.610Z,25.67
2022-12-23T10:20:55.867Z,24.03
2022-12-23T10:24:08.534Z,25.13
2022-12-23T10:27:25.611Z,25.37
2022-12-23T10:31:05.824Z,21.73
2022-12-23T10:34:13.186Z,23.33
2022-12-23T10:37:29.916Z,23.10
2022-12-23T10:40:51.410Z,22.40
2022-12-23T10:44:25.324Z,21.40
2022-12-23T10:47:49.145Z,32.67
2022-12-23T10:51:02.520Z,31.67
2022-12-23T10:54:14.197Z,26.60
2022-12-23T10:57:20.755Z,24.87
2022-12-23T11:00:26.760Z,26.23
2022-12-23T11:03:35.022Z,23.23
2022-12-23T11:06:44.651Z,20.63
2022-12-23T11:09:56.273Z,19.90
2022-12-23T11:13:01.597Z,20.53
2022-12-23T11:16:23.963Z,20.43
2022-12-23T11:19:28.009Z,20.00
2022-12-23T11:22:31.646Z,19.87
2022-12-23T11:25:41.566Z,18.77
2022-12-23T11:28:53.926Z,19.53
2022-12-23T11:31:58.251Z,19.70
2022-12-23T11:35:02.125Z,19.07
2022-12-23T11:38:15.169Z,17.87
2022-12-23T11:41:25.927Z,19.33
2022-12-23T11:44:33.594Z,18.33
2022-12-23T11:47:42.924Z,18.03
2022-12-23T11:50:59.698Z,17.87
2022-12-23T11:54:04.571Z,17.37
2022-12-23T11:57:20.109Z,18.67
2022-12-23T12:00:27.635Z,19.53
2022-12-23T12:03:37.513Z,18.67
2022-12-23T12:06:52.672Z,21.67
2022-12-23T12:10:01.463Z,19.97
2022-12-23T12:13:21.751Z,21.10
2022-12-23T12:16:49.472Z,19.17
2022-12-23T12:20:06.099Z,19.47
2022-12-23T12:23:19.508Z,19.33
2022-12-23T12:26:30.037Z,20.30
2022-12-23T12:29:44.927Z,20.73
2022-12-23T12:33:01.057Z,20.03
2022-12-23T12:36:18.057Z,19.83
2022-12-23T12:39:29.052Z,19.73
2022-12-23T12:42:41.459Z,19.77
2022-12-23T12:45:55.040Z,21.23
2022-12-23T12:49:10.346Z,20.63
2022-12-23T12:52:20.642Z,20.00
2022-12-23T12:55:32.475Z,19.63
2022-12-23T12:58:36.208Z,19.93
2022-12-23T13:01:57.781Z,21.17
2022-12-23T13:05:24.876Z,19.53
2022-12-23T13:09:01.901Z,19.90
2022-12-23T13:12:18.873Z,20.40
2022-12-23T13:15:36.683Z,20.27
2022-12-23T13:18:53.811Z,20.83
2022-12-23T13:22:09.007Z,20.17
2022-12-23T13:25:20.067Z,21.53
2022-12-23T13:28:37.435Z,20.70
2022-12-23T13:31:55.114Z,21.03
2022-12-23T13:35:17.323Z,20.87
2022-12-23T13:38:46.843Z,21.13
2022-12-23T13:41:58.506Z,20.30
2022-12-23T13:45:07.822Z,20.67
2022-12-23T13:48:37.590Z,33.00
2022-12-23T13:51:55.637Z,26.03
2022-12-23T13:55:11.964Z,21.87
2022-12-23T13:58:21.161Z,21.93
2022-12-23T14:01:38.271Z,20.40
2022-12-23T14:05:01.140Z,20.50
2022-12-23T14:08:21.928Z,21.87
2022-12-23T14:11:28.602Z,22.97
2022-12-23T14:14:33.188Z,24.23
2022-12-23T14:17:47.407Z,20.90
2022-12-23T14:21:03.200Z,24.93
2022-12-23T14:24:49.033Z,32.50
2022-12-23T14:28:03.729Z,24.77
2022-12-23T14:31:28.055Z,33.33
2022-12-23T14:34:36.285Z,24.33
2022-12-23T14:37:41.091Z,20.97
2022-12-23T14:41:14.502Z,19.00
2022-12-23T14:44:43.741Z,19.10
2022-12-23T14:47:47.758Z,22.23
2022-12-23T14:50:59.707Z,23.17
2022-12-23T14:54:16.580Z,19.67
2022-12-23T14:57:36.453Z,21.20
2022-12-23T15:00:51.224Z,19.73
2022-12-23T15:04:01.375Z,21.10
2022-12-23T15:07:08.813Z,20.53
2022-12-23T15:10:21.402Z,21.97
2022-12-23T15:13:29.988Z,20.07
2022-12-23T15:16:37.614Z,20.13
2022-12-23T15:19:48.174Z,22.37
2022-12-23T15:22:52.773Z,22.70
2022-12-23T15:26:00.257Z,21.80
2022-12-23T15:29:09.344Z,21.47
2022-12-23T15:32:13.631Z,20.77
2022-12-23T15:35:24.717Z,22.53
2022-12-23T15:38:37.894Z,22.30
2022-12-23T15:41:46.617Z,21.73
2022-12-23T15:44:52.417Z,22.63
2022-12-23T15:47:56.700Z,24.47
2022-12-23T15:51:06.795Z,22.80
2022-12-23T15:54:24.202Z,25.10
2022-12-23T15:57:31.340Z,22.20
2022-12-23T16:00:42.827Z,23.03
2022-12-23T16:03:54.319Z,22.93
2022-12-23T16:06:58.228Z,27.60
2022-12-23T16:10:06.076Z,26.60
2022-12-23T16:13:20.146Z,24.60
2022-12-23T16:16:40.276Z,25.70
2022-12-23T16:19:48.213Z,25.73
2022-12-23T16:22:55.381Z,25.13
2022-12-23T16:26:02.687Z,25.37
2022-12-23T16:29:06.703Z,26.27
2022-12-23T16:32:18.008Z,25.13
2022-12-23T16:35:39.665Z,26.03
2022-12-23T16:38:43.420Z,27.23
2022-12-23T16:41:47.360Z,26.17
2022-12-23T16:44:51.583Z,24.33
2022-12-23T16:47:59.286Z,25.93
2022-12-23T16:51:08.422Z,25.33
2022-12-23T16:54:16.999Z,26.20
2022-12-23T16:57:20.863Z,25.80
2022-12-23T17:00:25.018Z,26.57
2022-12-23T17:03:30.236Z,25.93
2022-12-23T17:06:36.062Z,23.10
2022-12-23T17:09:39.838Z,21.77
2022-12-23T17:12:44.624Z,24.33
2022-12-23T17:15:48.446Z,23.80
2022-12-23T17:18:55.177Z,23.90
2022-12-23T17:22:04.500Z,21.90
2022-12-23T17:25:08.933Z,22.67
2022-12-23T17:28:12.863Z,21.60
2022-12-23T17:31:25.976Z,19.93
2022-12-23T17:34:31.977Z,21.10
2022-12-23T17:37:40.656Z,19.23
2022-12-23T17:40:49.059Z,21.20
2022-12-23T17:43:53.084Z,21.87
2022-12-23T17:46:56.936Z,20.90
2022-12-23T17:50:02.140Z,26.00
2022-12-23T17:53:06.027Z,22.73
2022-12-23T17:56:14.966Z,20.63
2022-12-23T17:59:18.700Z,21.67
2022-12-23T18:02:28.128Z,24.87
2022-12-23T18:05:36.821Z,20.57
2022-12-23T18:08:40.512Z,17.87
2022-12-23T18:11:47.967Z,19.67
2022-12-23T18:14:51.682Z,19.43
2022-12-23T18:17:55.530Z,20.07
2022-12-23T18:21:01.868Z,19.90
2022-12-23T18:24:06.505Z,21.03
2022-12-23T18:27:15.716Z,18.63
2022-12-23T18:30:20.853Z,18.20
2022-12-23T18:33:29.500Z,19.00
2022-12-23T18:36:35.318Z,18.30
2022-12-23T18:39:39.692Z,19.93
2022-12-23T18:42:43.331Z,17.93
2022-12-23T18:45:52.394Z,17.30
2022-12-23T18:48:56.725Z,18.37
2022-12-23T18:52:02.248Z,17.87
2022-12-23T18:55:08.214Z,15.83
2022-12-23T18:58:14.478Z,16.97
2022-12-23T19:01:19.951Z,18.63
2022-12-23T19:04:23.759Z,16.40
2022-12-23T19:07:28.928Z,15.57
2022-12-23T19:10:34.742Z,17.23
2022-12-23T19:13:38.555Z,16.27
2022-12-23T19:16:49.263Z,15.97
2022-12-23T19:19:55.111Z,17.50
2022-12-23T19:23:00.344Z,15.87
2022-12-23T19:26:05.923Z,14.97
2022-12-23T19:29:09.614Z,15.90
2022-12-23T19:32:13.366Z,14.10
2022-12-23T19:35:17.083Z,14.63
2022-12-23T19:38:22.234Z,13.90
2022-12-23T19:41:26.722Z,15.30
2022-12-23T19:44:30.526Z,12.23
2022-12-23T19:47:34.328Z,12.93
2022-12-23T19:50:38.197Z,11.73
2022-12-23T19:53:46.163Z,13.37
2022-12-23T19:56:51.966Z,12.27
2022-12-23T19:59:56.660Z,12.30
2022-12-23T20:03:00.382Z,12.80
2022-12-23T20:06:05.397Z,12.03
2022-12-23T20:09:13.996Z,12.30
2022-12-23T20:12:17.721Z,12.07
2022-12-23T20:15:21.584Z,11.50
2022-12-23T20:18:25.280Z,12.30
2022-12-23T20:21:28.984Z,11.97
2022-12-23T20:24:35.992Z,11.27
2022-12-23T20:27:39.904Z,10.53
2022-12-23T20:30:43.764Z,11.00
2022-12-23T20:33:49.364Z,11.57
2022-12-23T20:36:53.020Z,11.63
2022-12-23T20:39:58.174Z,11.27
2022-12-23T20:43:01.902Z,10.93
2022-12-23T20:46:08.032Z,11.00
2022-12-23T20:49:11.828Z,10.40
2022-12-23T20:52:15.546Z,10.97
2022-12-23T20:55:21.435Z,9.63
2022-12-23T20:58:42.362Z,9.27
2022-12-23T21:01:46.881Z,9.30
2022-12-23T21:04:50.588Z,9.07
2022-12-23T21:07:54.279Z,9.67
2022-12-23T21:10:59.703Z,9.40
2022-12-23T21:14:06.840Z,9.17
2022-12-23T21:17:11.005Z,9.03
2022-12-23T21:20:14.709Z,8.23
2022-12-23T21:23:18.296Z,8.83
2022-12-23T21:26:26.430Z,10.23
2022-12-23T21:29:29.977Z,9.97
2022-12-23T21:32:33.897Z,9.73
2022-12-23T21:35:37.538Z,10.33
2022-12-23T21:38:44.872Z,10.37
2022-12-23T21:41:51.528Z,11.10
2022-12-23T21:44:55.424Z,10.47
2022-12-23T21:47:59.002Z,8.73
2022-12-23T21:51:09.376Z,11.40
2022-12-23T21:54:13.859Z,10.47
2022-12-23T21:57:19.666Z,9.67
2022-12-23T22:00:23.432Z,10.97
2022-12-23T22:03:28.739Z,10.13
2022-12-23T22:06:35.954Z,10.17
2022-12-23T22:09:39.596Z,9.83
2022-12-23T22:12:44.562Z,10.70
2022-12-23T22:15:48.170Z,9.67
2022-12-23T22:18:53.626Z,9.60
2022-12-23T22:21:57.341Z,9.93
2022-12-23T22:25:01.021Z,9.03
2022-12-23T22:28:06.281Z,10.43
2022-12-23T22:31:18.922Z,10.37
2022-12-23T22:34:24.376Z,10.50
2022-12-23T22:37:27.949Z,10.40
2022-12-23T22:40:31.701Z,9.27
2022-12-23T22:43:36.829Z,10.17
2022-12-23T22:46:40.695Z,9.80
2022-12-23T22:49:44.320Z,10.27
2022-12-23T22:52:47.944Z,9.90
2022-12-23T22:55:59.569Z,9.37
2022-12-23T22:59:05.117Z,10.17
2022-12-23T23:02:08.911Z,9.60
2022-12-23T23:05:13.218Z,9.07
2022-12-23T23:08:17.498Z,10.00
2022-12-23T23:11:21.580Z,10.40
2022-12-23T23:14:27.015Z,9.70
2022-12-23T23:17:31.030Z,10.10
2022-12-23T23:20:34.661Z,9.13
2022-12-23T23:23:38.337Z,10.03
2022-12-23T23:26:41.919Z,8.80
2022-12-23T23:29:46.945Z,9.10
2022-12-23T23:32:50.545Z,9.17
2022-12-23T23:35:56.697Z,9.40
2022-12-23T23:39:00.325Z,9.13
2022-12-23T23:42:03.893Z,9.13
2022-12-23T23:45:10.265Z,9.13
2022-12-23T23:48:15.014Z,9.27
2022-12-23T23:51:18.604Z,10.50
2022-12-23T23:54:22.269Z,8.70
2022-12-23T23:57:26.362Z,8.60
